Time;durP1;ratioP1;P1;durP2;ratioP2;P2;SDS_P1;SDS_P2;PMS_P1;PMS_P2;Temp;Humidity;BMP_temperature;BMP_pressure;BME280_temperature;BME280_humidity;BME280_pressure;Samples;Min_cycle;Max_cycle;Signal;HPM_P1;HPM_P2
2021/01/23 00:00:23;;;;;;;2.43;2.23;;;4.60;95.20;;;;;;5019299;28;20177;-90
2021/01/23 00:02:48;;;;;;;1.90;1.80;;;4.60;95.80;;;;;;5038330;28;20200;-90
2021/01/23 00:05:14;;;;;;;2.00;1.90;;;4.50;94.30;;;;;;5034559;28;20687;-88
2021/01/23 00:07:40;;;;;;;2.30;2.10;;;4.50;95.20;;;;;;5025460;28;20259;-89
2021/01/23 00:10:06;;;;;;;2.63;2.40;;;4.60;97.50;;;;;;5031290;28;20181;-89
2021/01/23 00:12:32;;;;;;;2.40;2.20;;;4.30;96.30;;;;;;5032939;28;20181;-88
2021/01/23 00:14:58;;;;;;;2.27;2.17;;;4.10;97.40;;;;;;5038092;28;20213;-88
2021/01/23 00:17:23;;;;;;;2.80;2.60;;;4.10;99.00;;;;;;5037866;28;20675;-89
2021/01/23 00:19:49;;;;;;;2.50;2.30;;;4.00;99.70;;;;;;5038406;28;20656;-89
2021/01/23 00:22:14;;;;;;;2.43;2.23;;;4.00;99.50;;;;;;5036012;28;20224;-91
2021/01/23 00:24:40;;;;;;;3.17;2.60;;;4.10;98.90;;;;;;5036865;28;20699;-89
2021/01/23 00:27:06;;;;;;;2.37;2.17;;;4.30;98.50;;;;;;5037615;28;20181;-90
2021/01/23 00:29:32;;;;;;;2.73;2.43;;;4.30;99.10;;;;;;5016977;28;20181;-90
2021/01/23 00:31:57;;;;;;;4.03;3.63;;;4.30;99.30;;;;;;5029628;28;20196;-89
2021/01/23 00:34:23;;;;;;;4.60;4.20;;;4.00;97.90;;;;;;5038467;28;20201;-89
2021/01/23 00:36:51;;;;;;;4.70;4.27;;;3.70;99.90;;;;;;5019189;28;20242;-90
2021/01/23 00:39:17;;;;;;;5.40;4.77;;;3.50;99.90;;;;;;5022169;28;20224;-90
2021/01/23 00:41:42;;;;;;;5.43;4.93;;;3.60;99.90;;;;;;5022538;28;20216;-89
2021/01/23 00:44:08;;;;;;;5.43;4.87;;;3.50;99.80;;;;;;5039280;28;20225;-91
2021/01/23 00:46:34;;;;;;;6.73;6.00;;;3.40;99.50;;;;;;5039645;28;20188;-90
2021/01/23 00:48:59;;;;;;;7.77;6.80;;;3.30;99.90;;;;;;5019650;28;20185;-90
2021/01/23 00:51:25;;;;;;;8.23;5.90;;;3.30;99.90;;;;;;5039717;28;20193;-90
2021/01/23 00:53:51;;;;;;;10.10;7.50;;;3.20;99.90;;;;;;5020706;28;20637;-90
2021/01/23 00:56:16;;;;;;;6.63;5.43;;;3.00;99.90;;;;;;5006266;28;20185;-91
2021/01/23 00:58:42;;;;;;;5.47;4.93;;;2.90;99.90;;;;;;5033873;28;20181;-90
2021/01/23 01:01:08;;;;;;;5.33;4.37;;;2.80;99.90;;;;;;5020492;28;20301;-89
2021/01/23 01:03:34;;;;;;;4.67;4.23;;;2.90;99.90;;;;;;5037910;28;20212;-89
2021/01/23 01:06:01;;;;;;;6.87;5.13;;;2.80;99.90;;;;;;5003222;28;20611;-88
2021/01/23 01:08:27;;;;;;;6.30;5.00;;;2.90;99.90;;;;;;5016723;28;20185;-89
2021/01/23 01:10:53;;;;;;;4.77;4.20;;;2.90;99.90;;;;;;5038484;28;20200;-90
2021/01/23 01:13:19;;;;;;;3.97;3.67;;;2.80;99.90;;;;;;5039534;28;20271;-89
2021/01/23 01:15:45;;;;;;;4.57;4.17;;;2.80;99.90;;;;;;5062962;28;20180;-90
2021/01/23 01:18:30;;;;;;;;;;;;;;;;;;;;;
2021/01/23 01:20:59;;;;;;;3.77;3.50;;;3.00;99.90;;;;;;5040236;28;20263;-90
2021/01/23 01:23:25;;;;;;;4.17;3.77;;;3.00;99.90;;;;;;5039202;28;20204;-90
2021/01/23 01:25:50;;;;;;;3.60;3.30;;;3.10;99.90;;;;;;5040890;28;20193;-90
2021/01/23 01:28:19;;;;;;;4.60;4.20;;;3.30;99.90;;;;;;5040826;28;20200;-92
2021/01/23 01:30:44;;;;;;;3.77;3.47;;;3.30;99.90;;;;;;5022746;28;20193;-91
2021/01/23 01:33:10;;;;;;;3.93;3.53;;;3.30;99.90;;;;;;5022901;28;20227;-91
2021/01/23 01:35:36;;;;;;;3.33;3.03;;;3.20;99.90;;;;;;5040570;28;20587;-90
2021/01/23 01:38:02;;;;;;;3.63;3.33;;;3.30;99.90;;;;;;5039564;28;20193;-89
2021/01/23 01:40:28;;;;;;;3.10;2.90;;;3.30;99.90;;;;;;5039552;28;20195;-88
2021/01/23 01:42:56;;;;;;;3.40;3.10;;;3.40;99.90;;;;;;5039460;28;20299;-89
2021/01/23 01:45:22;;;;;;;3.63;3.33;;;3.30;99.90;;;;;;5038681;28;20187;-90
2021/01/23 01:47:48;;;;;;;3.70;3.40;;;3.40;99.90;;;;;;5017480;28;20193;-90
2021/01/23 01:50:14;;;;;;;3.63;3.37;;;3.50;99.90;;;;;;5019812;28;20687;-90
2021/01/23 01:52:44;;;;;;;4.13;3.83;;;3.40;99.90;;;;;;5037437;28;20727;-90
2021/01/23 01:55:11;;;;;;;4.07;3.77;;;3.40;99.70;;;;;;4992080;28;20220;-89
2021/01/23 01:57:37;;;;;;;5.00;4.50;;;3.20;99.90;;;;;;5019312;28;20548;-89
2021/01/23 02:00:05;;;;;;;4.57;4.17;;;3.20;99.90;;;;;;5002594;28;20268;-88
2021/01/23 02:02:31;;;;;;;4.67;4.27;;;3.10;99.90;;;;;;5024602;28;20206;-89
2021/01/23 02:05:10;;;;;;;4.97;4.47;;;3.10;99.90;;;;;;5019158;28;20202;-89
2021/01/23 02:07:35;;;;;;;5.33;4.83;;;3.10;99.90;;;;;;5020038;28;20245;-89
2021/01/23 02:10:31;;;;;;;5.63;5.13;;;2.90;99.90;;;;;;5019609;28;20217;-89
2021/01/23 02:13:16;;;;;;;5.60;4.87;;;2.90;99.90;;;;;;5001722;28;20262;-90
2021/01/23 02:16:12;;;;;;;5.50;5.00;;;3.00;99.90;;;;;;5019274;28;20170;-89
2021/01/23 02:18:42;;;;;;;6.03;5.43;;;3.00;99.90;;;;;;5010204;28;20615;-89
2021/01/23 02:21:30;;;;;;;6.90;5.10;;;3.00;99.90;;;;;;5018888;28;20181;-89
2021/01/23 02:23:58;;;;;;;6.50;5.80;;;3.20;99.90;;;;;;5019161;28;20259;-89
2021/01/23 02:26:44;;;;;;;6.07;5.47;;;3.00;99.90;;;;;;5019280;28;20270;-89
2021/01/23 02:29:28;;;;;;;7.27;6.00;;;3.10;99.90;;;;;;5028306;28;20189;-90
2021/01/23 02:32:03;;;;;;;7.00;6.30;;;3.00;99.90;;;;;;5039209;28;20180;-89
2021/01/23 02:34:29;;;;;;;8.87;7.00;;;3.00;99.90;;;;;;5037562;28;20592;-90
2021/01/23 02:36:58;;;;;;;8.13;7.10;;;2.90;99.90;;;;;;5039109;28;20759;-90
2021/01/23 02:39:25;;;;;;;8.37;7.30;;;2.90;99.90;;;;;;5021201;28;20635;-90
2021/01/23 02:41:51;;;;;;;8.87;7.97;;;2.80;99.90;;;;;;5021080;28;20276;-90
2021/01/23 02:44:17;;;;;;;7.87;6.87;;;2.90;99.90;;;;;;5020881;28;20300;-89
2021/01/23 02:46:43;;;;;;;8.40;6.77;;;2.90;99.90;;;;;;5021097;28;20586;-89
2021/01/23 02:49:09;;;;;;;7.80;7.00;;;3.10;99.90;;;;;;5038559;28;20173;-91
2021/01/23 02:51:55;;;;;;;7.90;7.10;;;3.10;99.90;;;;;;5021189;28;20698;-89
2021/01/23 02:54:49;;;;;;;7.07;6.37;;;2.90;99.90;;;;;;5027677;28;20213;-89
2021/01/23 02:57:18;;;;;;;8.40;7.00;;;2.90;99.90;;;;;;5038967;28;20193;-89
2021/01/23 02:59:46;;;;;;;7.30;6.57;;;3.00;99.90;;;;;;5037975;28;20223;-89
2021/01/23 03:02:14;;;;;;;7.80;6.27;;;3.00;99.90;;;;;;5039245;28;20204;-89
2021/01/23 03:04:41;;;;;;;7.43;6.63;;;2.90;99.90;;;;;;5057879;28;20200;-89
2021/01/23 03:07:07;;;;;;;9.70;7.57;;;3.00;99.90;;;;;;5040878;28;20647;-89
2021/01/23 03:09:34;;;;;;;9.00;7.07;;;2.90;99.90;;;;;;5058116;28;20183;-89
2021/01/23 03:12:00;;;;;;;7.53;6.73;;;3.00;99.90;;;;;;5058222;28;20184;-89
2021/01/23 03:14:26;;;;;;;9.40;7.80;;;3.00;99.90;;;;;;5048200;28;20231;-90
2021/01/23 03:16:54;;;;;;;8.83;7.90;;;3.00;99.90;;;;;;5038502;28;20188;-88
2021/01/23 03:19:21;;;;;;;8.27;7.43;;;3.00;99.90;;;;;;5039171;28;20178;-88
2021/01/23 03:21:49;;;;;;;9.07;7.47;;;3.10;99.90;;;;;;5038214;28;20185;-89
2021/01/23 03:24:15;;;;;;;8.03;7.07;;;3.00;99.90;;;;;;5038006;28;20786;-89
2021/01/23 03:26:41;;;;;;;7.97;7.17;;;3.00;99.90;;;;;;5038958;28;20216;-88
2021/01/23 03:29:07;;;;;;;8.27;6.60;;;3.10;99.90;;;;;;5021666;28;20541;-89
2021/01/23 03:31:34;;;;;;;7.47;6.67;;;3.20;99.90;;;;;;5041961;28;20181;-88
2021/01/23 03:34:00;;;;;;;8.70;7.63;;;3.20;99.90;;;;;;5041240;28;20247;-89
2021/01/23 03:36:26;;;;;;;7.50;6.80;;;3.30;99.90;;;;;;5041758;28;20275;-89
2021/01/23 03:38:52;;;;;;;7.43;6.80;;;3.20;99.90;;;;;;5040734;28;20207;-89
2021/01/23 03:41:18;;;;;;;9.43;7.87;;;3.10;99.90;;;;;;5021656;28;20594;-89
2021/01/23 03:43:44;;;;;;;8.53;7.13;;;3.00;99.90;;;;;;5038935;28;20216;-89
2021/01/23 03:46:10;;;;;;;8.30;6.67;;;3.10;99.90;;;;;;5047747;28;20275;-89
2021/01/23 03:48:37;;;;;;;8.13;6.73;;;3.20;99.90;;;;;;5059105;28;20192;-89
2021/01/23 03:51:04;;;;;;;10.57;6.93;;;3.20;99.90;;;;;;5059066;28;20188;-89
2021/01/23 03:53:29;;;;;;;10.03;7.13;;;3.10;99.90;;;;;;5040707;28;20315;-89
2021/01/23 03:55:55;;;;;;;9.10;7.50;;;3.10;99.90;;;;;;5059337;28;20663;-89
2021/01/23 03:58:21;;;;;;;7.93;6.63;;;3.00;99.90;;;;;;5057043;28;20193;-89
2021/01/23 04:00:47;;;;;;;6.63;6.03;;;3.00;99.90;;;;;;5040161;28;20177;-88
2021/01/23 04:03:13;;;;;;;6.83;6.10;;;3.00;99.90;;;;;;5041171;28;20213;-89
2021/01/23 04:05:39;;;;;;;7.27;6.57;;;3.00;99.90;;;;;;5041197;28;20181;-89
2021/01/23 04:08:06;;;;;;;6.93;6.33;;;2.90;99.90;;;;;;5051611;28;20226;-89
2021/01/23 04:10:31;;;;;;;6.80;6.10;;;2.80;99.90;;;;;;5043059;28;20181;-88
2021/01/23 04:12:57;;;;;;;8.00;7.10;;;2.70;99.90;;;;;;5060015;28;20180;-89
2021/01/23 04:15:23;;;;;;;8.23;6.27;;;2.80;99.90;;;;;;5042226;28;20188;-89
2021/01/23 04:17:50;;;;;;;7.10;5.40;;;2.90;99.90;;;;;;5060178;28;20602;-88
2021/01/23 04:20:16;;;;;;;5.63;5.13;;;2.90;99.90;;;;;;5041965;28;20185;-89
2021/01/23 04:22:42;;;;;;;6.07;5.37;;;2.80;99.90;;;;;;5059611;28;20735;-90
2021/01/23 04:25:08;;;;;;;5.80;5.20;;;2.80;99.90;;;;;;5042005;28;20196;-89
2021/01/23 04:27:34;;;;;;;5.30;4.53;;;2.80;99.90;;;;;;5025278;28;20181;-90
2021/01/23 04:30:00;;;;;;;5.07;4.57;;;2.80;99.90;;;;;;5024946;28;20222;-90
2021/01/23 04:32:26;;;;;;;4.50;4.10;;;2.80;99.90;;;;;;5059545;28;20230;-90
2021/01/23 04:34:52;;;;;;;4.27;3.87;;;2.80;99.90;;;;;;5059482;28;20202;-90
2021/01/23 04:37:18;;;;;;;5.07;3.80;;;2.80;99.90;;;;;;5049309;28;20204;-90
2021/01/23 04:39:44;;;;;;;4.27;3.87;;;2.80;99.90;;;;;;5039018;28;20210;-89
2021/01/23 04:42:10;;;;;;;3.40;3.10;;;2.80;99.90;;;;;;5021525;28;20209;-90
2021/01/23 04:44:37;;;;;;;4.23;3.47;;;2.70;99.90;;;;;;5039573;28;20255;-90
2021/01/23 04:47:04;;;;;;;3.60;3.30;;;2.70;99.90;;;;;;5021698;28;20666;-90
2021/01/23 04:49:31;;;;;;;3.30;3.00;;;2.80;99.90;;;;;;5041358;28;20179;-89
2021/01/23 04:51:57;;;;;;;3.10;2.80;;;2.80;99.90;;;;;;5042173;28;20793;-90
2021/01/23 04:54:23;;;;;;;3.07;2.77;;;2.80;99.90;;;;;;5024028;28;20208;-90
2021/01/23 04:56:50;;;;;;;2.60;2.40;;;2.80;99.90;;;;;;5042682;28;20203;-89
2021/01/23 04:59:16;;;;;;;2.60;2.40;;;2.80;99.90;;;;;;5041935;28;20188;-90
2021/01/23 05:01:42;;;;;;;3.13;2.83;;;2.80;99.90;;;;;;5038474;28;20185;-89
2021/01/23 05:04:08;;;;;;;2.90;2.70;;;2.80;99.90;;;;;;5041802;28;20221;-91
2021/01/23 05:06:33;;;;;;;3.00;2.80;;;2.80;99.90;;;;;;5041564;28;20261;-90
2021/01/23 05:08:59;;;;;;;3.03;2.73;;;2.90;99.90;;;;;;5051716;28;20229;-90
2021/01/23 05:11:47;;;;;;;2.97;2.67;;;2.80;99.90;;;;;;5061172;28;20218;-89
2021/01/23 05:14:15;;;;;;;3.97;2.57;;;3.00;99.90;;;;;;5061351;28;20216;-90
2021/01/23 05:16:42;;;;;;;2.17;2.07;;;3.00;99.90;;;;;;5060977;28;20194;-90
2021/01/23 05:19:09;;;;;;;2.70;2.47;;;3.10;99.90;;;;;;5043646;28;20184;-90
2021/01/23 05:21:35;;;;;;;2.30;2.10;;;3.10;99.90;;;;;;5043163;28;20973;-90
2021/01/23 05:24:06;;;;;;;3.20;2.10;;;3.10;99.80;;;;;;5027115;28;20200;-90
2021/01/23 05:26:33;;;;;;;3.33;2.00;;;3.20;99.90;;;;;;5024414;28;20188;-89
2021/01/23 05:29:13;;;;;;;3.67;2.10;;;3.20;99.90;;;;;;5023495;28;20181;-91
2021/01/23 05:31:41;;;;;;;2.30;2.10;;;3.30;98.70;;;;;;5041279;28;20160;-90
2021/01/23 05:34:32;;;;;;;2.03;1.87;;;3.30;98.20;;;;;;5023543;28;20197;-90
2021/01/23 05:36:58;;;;;;;1.97;1.87;;;3.30;98.90;;;;;;5040941;28;20544;-90
2021/01/23 05:39:47;;;;;;;3.90;2.70;;;3.40;97.90;;;;;;5023397;28;20248;-90
2021/01/23 05:42:14;;;;;;;2.20;2.00;;;3.40;97.70;;;;;;5040854;28;20204;-90
2021/01/23 05:44:40;;;;;;;2.00;1.90;;;3.30;98.40;;;;;;5040956;28;20606;-90
2021/01/23 05:47:27;;;;;;;2.80;2.27;;;3.40;97.80;;;;;;5041171;28;20201;-90
2021/01/23 05:49:54;;;;;;;2.77;2.20;;;3.40;97.90;;;;;;5039642;28;20180;-90
2021/01/23 05:52:20;;;;;;;2.40;2.10;;;3.40;97.00;;;;;;5038590;28;20177;-90
2021/01/23 05:54:46;;;;;;;2.30;2.10;;;3.50;96.90;;;;;;5038385;28;20296;-90
2021/01/23 05:57:12;;;;;;;2.10;2.00;;;3.40;96.70;;;;;;5058891;28;20215;-90
2021/01/23 05:59:41;;;;;;;2.07;1.93;;;3.40;97.30;;;;;;5058990;28;20663;-90
2021/01/23 06:02:10;;;;;;;2.10;1.90;;;3.40;97.90;;;;;;5059061;28;20192;-90
2021/01/23 06:04:37;;;;;;;2.40;2.10;;;3.20;99.00;;;;;;5059308;28;20196;-90
2021/01/23 06:07:03;;;;;;;2.80;2.60;;;3.20;99.20;;;;;;5041371;28;20173;-90
2021/01/23 06:09:34;;;;;;;2.30;2.10;;;3.20;99.10;;;;;;5059011;28;20749;-90
2021/01/23 06:12:00;;;;;;;2.77;2.00;;;3.30;98.90;;;;;;5059225;28;20180;-90
2021/01/23 06:14:39;;;;;;;2.40;2.20;;;3.40;97.90;;;;;;5041638;28;20242;-90
2021/01/23 06:17:05;;;;;;;2.43;2.23;;;3.40;98.00;;;;;;5058735;28;20690;-90
2021/01/23 06:19:31;;;;;;;2.20;2.00;;;3.40;97.80;;;;;;5059036;28;20199;-90
2021/01/23 06:21:57;;;;;;;4.03;2.30;;;3.40;97.60;;;;;;5060009;28;20211;-87
2021/01/23 06:24:31;;;;;;;2.60;2.30;;;3.50;99.00;;;;;;5058089;28;20304;-92
2021/01/23 06:27:00;;;;;;;3.50;2.50;;;3.60;95.70;;;;;;5058513;28;20184;-91
2021/01/23 06:29:42;;;;;;;2.97;2.67;;;3.70;96.00;;;;;;5058931;28;20176;-91
2021/01/23 06:32:13;;;;;;;2.60;2.40;;;3.70;95.50;;;;;;5058977;28;20172;-90
2021/01/23 06:34:53;;;;;;;2.47;2.27;;;3.70;96.20;;;;;;5042018;28;20276;-91
2021/01/23 06:37:20;;;;;;;2.60;2.40;;;3.60;96.40;;;;;;5058809;28;20646;-91
2021/01/23 06:40:03;;;;;;;2.50;2.30;;;3.50;96.90;;;;;;5058736;28;20192;-91
2021/01/23 06:42:29;;;;;;;2.47;2.27;;;3.50;97.30;;;;;;5058797;28;20207;-91
2021/01/23 06:44:55;;;;;;;2.40;2.20;;;3.60;96.60;;;;;;5058485;28;20202;-92
2021/01/23 06:47:21;;;;;;;2.30;2.10;;;3.60;95.70;;;;;;5058351;28;20237;-92
2021/01/23 06:49:47;;;;;;;3.80;2.63;;;3.60;95.70;;;;;;5058953;28;20315;-91
2021/01/23 06:52:12;;;;;;;2.30;2.10;;;3.60;96.00;;;;;;5058576;28;20224;-91
2021/01/23 06:54:44;;;;;;;2.67;2.47;;;3.50;96.30;;;;;;5040624;28;20548;-91
2021/01/23 06:57:10;;;;;;;2.53;2.33;;;3.60;95.30;;;;;;5052060;28;20173;-91
2021/01/23 06:59:37;;;;;;;2.83;2.10;;;3.40;95.90;;;;;;5004731;28;20204;-91
2021/01/23 07:02:06;;;;;;;2.70;2.37;;;3.50;95.50;;;;;;5038409;28;20541;-90
2021/01/23 07:04:34;;;;;;;3.47;2.30;;;3.50;95.70;;;;;;5037132;28;20208;-91
2021/01/23 07:07:05;;;;;;;2.37;2.17;;;3.40;95.90;;;;;;5020886;28;20231;-90
2021/01/23 07:09:52;;;;;;;3.17;2.30;;;3.40;96.00;;;;;;5038340;28;20161;-91
2021/01/23 07:12:40;;;;;;;2.27;2.07;;;3.40;96.50;;;;;;5038095;28;20204;-91
2021/01/23 07:15:08;;;;;;;2.60;2.40;;;3.30;96.80;;;;;;5038241;28;20215;-91
2021/01/23 07:17:38;;;;;;;2.40;2.20;;;3.20;96.90;;;;;;5037892;28;20185;-91
2021/01/23 07:20:08;;;;;;;2.47;2.27;;;3.30;97.00;;;;;;5020563;28;20288;-91
2021/01/23 07:22:37;;;;;;;2.63;2.20;;;3.30;96.30;;;;;;5020967;28;20216;-92
2021/01/23 07:25:06;;;;;;;2.87;2.67;;;3.40;96.40;;;;;;5039187;28;20217;-91
2021/01/23 07:27:32;;;;;;;2.40;2.20;;;3.40;97.10;;;;;;5058544;28;20177;-91
2021/01/23 07:29:58;;;;;;;2.83;2.50;;;3.50;96.40;;;;;;5040447;28;20620;-91
2021/01/23 07:32:23;;;;;;;3.07;2.77;;;3.50;96.00;;;;;;5040142;28;20221;-91
2021/01/23 07:35:00;;;;;;;2.63;2.30;;;3.40;96.30;;;;;;5038096;28;20200;-91
2021/01/23 07:37:56;;;;;;;3.00;2.70;;;3.50;96.60;;;;;;5038114;28;20292;-91
2021/01/23 07:40:27;;;;;;;2.80;2.50;;;3.60;95.00;;;;;;5007768;28;20197;-91
2021/01/23 07:42:57;;;;;;;3.43;2.70;;;3.60;96.10;;;;;;5020027;28;20709;-92
2021/01/23 07:45:22;;;;;;;3.23;2.47;;;3.80;97.10;;;;;;5011537;28;20185;-91
2021/01/23 07:48:02;;;;;;;3.37;3.03;;;3.90;94.90;;;;;;5019813;28;20718;-90
2021/01/23 07:50:37;;;;;;;3.53;3.23;;;3.70;95.00;;;;;;5057103;28;20619;-89
2021/01/23 07:53:23;;;;;;;4.83;3.40;;;3.60;95.30;;;;;;5061024;28;20156;-91
2021/01/23 07:55:50;;;;;;;3.40;3.10;;;3.50;94.60;;;;;;5043750;28;20208;-90
2021/01/23 07:58:16;;;;;;;3.47;3.17;;;3.50;96.80;;;;;;5041211;28;20181;-89
2021/01/23 08:00:42;;;;;;;3.23;2.93;;;3.60;97.50;;;;;;5020100;28;20196;-89
2021/01/23 08:03:10;;;;;;;4.50;3.20;;;3.70;94.60;;;;;;5038190;28;20224;-89
2021/01/23 08:05:50;;;;;;;3.50;3.20;;;3.80;94.10;;;;;;5022304;28;20746;-89
2021/01/23 08:08:32;;;;;;;3.23;2.93;;;3.80;94.30;;;;;;5039075;28;20248;-89
2021/01/23 08:11:01;;;;;;;3.30;3.00;;;3.50;94.90;;;;;;5033786;28;20202;-89
2021/01/23 08:13:29;;;;;;;5.27;3.23;;;3.50;96.60;;;;;;5031576;28;20213;-89
2021/01/23 08:16:11;;;;;;;4.00;3.30;;;3.50;97.40;;;;;;5038723;28;20181;-90
2021/01/23 08:18:37;;;;;;;5.97;3.70;;;3.40;98.30;;;;;;5040902;28;20181;-89
2021/01/23 08:21:17;;;;;;;4.37;3.80;;;3.40;99.40;;;;;;5041617;28;20323;-89
2021/01/23 08:23:43;;;;;;;5.23;4.17;;;3.40;99.60;;;;;;5023784;28;20220;-89
2021/01/23 08:26:08;;;;;;;4.63;4.00;;;3.40;98.40;;;;;;5040164;28;20264;-89
2021/01/23 08:28:42;;;;;;;3.80;3.50;;;3.40;98.60;;;;;;5041324;28;20173;-89
2021/01/23 08:31:25;;;;;;;4.70;4.20;;;3.40;98.30;;;;;;5048922;28;20180;-89
2021/01/23 08:33:55;;;;;;;7.20;3.83;;;3.50;99.50;;;;;;5018250;28;20204;-89
2021/01/23 08:36:33;;;;;;;4.23;3.83;;;3.60;98.70;;;;;;5026168;28;20196;-89
2021/01/23 08:39:06;;;;;;;4.80;4.00;;;3.70;98.00;;;;;;5019852;28;20185;-89
2021/01/23 08:41:35;;;;;;;5.23;4.10;;;3.70;98.20;;;;;;5037124;28;20166;-89
2021/01/23 08:44:00;;;;;;;4.67;4.27;;;3.70;99.50;;;;;;5036812;28;20216;-89
2021/01/23 08:46:26;;;;;;;5.63;5.03;;;3.70;98.00;;;;;;5039228;28;20177;-89
2021/01/23 08:48:54;;;;;;;6.20;4.57;;;3.60;98.20;;;;;;5046928;28;20208;-90
2021/01/23 08:51:20;;;;;;;5.37;4.83;;;3.60;99.00;;;;;;5038765;28;20204;-90
2021/01/23 08:53:46;;;;;;;4.40;4.00;;;3.50;98.70;;;;;;5047508;28;20299;-90
2021/01/23 08:56:13;;;;;;;4.67;4.13;;;3.60;97.70;;;;;;5033519;28;20203;-90
2021/01/23 08:58:39;;;;;;;5.90;4.97;;;3.70;99.10;;;;;;5043672;28;20185;-89
2021/01/23 09:01:04;;;;;;;7.30;6.07;;;3.70;98.70;;;;;;5042812;28;20192;-89
2021/01/23 09:03:30;;;;;;;8.43;5.60;;;3.70;99.50;;;;;;5022432;28;20216;-90
2021/01/23 09:05:56;;;;;;;5.40;4.90;;;4.00;99.90;;;;;;5052607;28;20186;-91
2021/01/23 09:08:21;;;;;;;6.77;4.17;;;4.30;98.50;;;;;;4990629;28;20270;-90
2021/01/23 09:10:47;;;;;;;4.30;3.80;;;4.50;92.90;;;;;;5047532;28;20182;-90
2021/01/23 09:13:13;;;;;;;4.23;3.60;;;4.50;92.60;;;;;;5035842;28;20228;-91
2021/01/23 09:15:39;;;;;;;7.20;3.70;;;4.50;93.90;;;;;;5019519;28;20263;-90
2021/01/23 09:18:05;;;;;;;3.83;3.53;;;4.60;94.40;;;;;;5035911;28;20615;-91
2021/01/23 09:20:31;;;;;;;3.90;3.57;;;4.60;94.30;;;;;;5038835;28;20223;-89
2021/01/23 09:22:57;;;;;;;4.80;3.63;;;4.50;94.90;;;;;;5042737;28;20246;-90
2021/01/23 09:25:23;;;;;;;4.30;3.63;;;4.50;94.20;;;;;;5038681;28;20185;-90
2021/01/23 09:27:48;;;;;;;6.50;4.10;;;4.40;95.70;;;;;;5038620;28;20192;-90
2021/01/23 09:30:15;;;;;;;4.23;3.63;;;4.50;94.80;;;;;;5037571;28;20235;-89
2021/01/23 09:32:42;;;;;;;5.53;3.77;;;4.60;92.70;;;;;;5036717;28;20268;-91
2021/01/23 09:35:08;;;;;;;5.73;3.83;;;4.50;95.30;;;;;;5037712;28;20201;-91
2021/01/23 09:37:33;;;;;;;3.93;3.60;;;4.50;94.80;;;;;;5021347;28;20181;-93
2021/01/23 09:40:01;;;;;;;5.40;3.23;;;4.50;95.30;;;;;;5025446;28;20596;-92
2021/01/23 09:42:27;;;;;;;3.77;3.47;;;4.80;92.00;;;;;;5019848;28;20665;-91
2021/01/23 09:44:52;;;;;;;3.07;2.63;;;4.90;91.30;;;;;;5000511;28;20205;-90
2021/01/23 09:47:18;;;;;;;4.87;3.07;;;5.00;89.30;;;;;;5030867;28;20267;-90
2021/01/23 09:49:44;;;;;;;3.20;2.90;;;4.80;91.30;;;;;;5037202;28;20184;-90
2021/01/23 09:52:10;;;;;;;3.60;3.27;;;4.80;92.40;;;;;;5019670;28;20192;-90
2021/01/23 09:54:36;;;;;;;4.60;2.80;;;4.90;92.60;;;;;;5037869;28;20201;-91
2021/01/23 09:57:05;;;;;;;5.83;2.77;;;5.10;91.20;;;;;;5020645;28;20348;-91
2021/01/23 09:59:34;;;;;;;3.27;2.97;;;5.10;89.70;;;;;;5027596;28;20638;-90
2021/01/23 10:02:00;;;;;;;4.20;3.30;;;5.10;89.30;;;;;;5020795;28;20192;-91
2021/01/23 10:04:26;;;;;;;4.10;2.63;;;5.30;87.50;;;;;;5021678;28;20201;-91
2021/01/23 10:06:52;;;;;;;3.40;3.10;;;5.30;89.00;;;;;;5021970;28;20204;-91
2021/01/23 10:09:18;;;;;;;3.37;2.80;;;5.20;88.90;;;;;;5020137;28;20193;-92
2021/01/23 10:11:44;;;;;;;3.43;3.13;;;5.20;88.20;;;;;;5040059;28;20714;-91
2021/01/23 10:14:10;;;;;;;3.23;2.47;;;5.20;90.50;;;;;;5002033;28;20225;-90
2021/01/23 10:16:35;;;;;;;4.07;3.10;;;5.30;87.60;;;;;;4990451;28;20204;-91
2021/01/23 10:19:04;;;;;;;4.10;3.00;;;5.30;88.00;;;;;;5020501;28;20279;-91
2021/01/23 10:21:30;;;;;;;3.87;2.73;;;5.20;90.60;;;;;;5019968;28;20544;-91
2021/01/23 10:23:56;;;;;;;5.00;3.37;;;5.40;86.40;;;;;;5037452;28;20213;-91
2021/01/23 10:26:22;;;;;;;4.43;3.40;;;5.30;87.50;;;;;;5033127;28;20193;-92
2021/01/23 10:28:48;;;;;;;3.73;2.87;;;5.30;87.80;;;;;;5036602;28;20600;-91
2021/01/23 10:31:13;;;;;;;3.67;2.93;;;5.40;87.50;;;;;;5019117;28;20204;-91
2021/01/23 10:33:39;;;;;;;3.57;2.63;;;5.60;85.70;;;;;;5039278;28;20201;-91
2021/01/23 10:36:05;;;;;;;6.23;3.33;;;5.80;84.90;;;;;;5011410;28;20198;-91
2021/01/23 10:38:31;;;;;;;3.50;2.53;;;5.90;88.00;;;;;;5008117;28;20296;-92
2021/01/23 10:40:56;;;;;;;4.70;2.80;;;6.00;83.40;;;;;;5023667;28;20254;-92
2021/01/23 10:43:22;;;;;;;5.40;2.97;;;5.90;84.40;;;;;;5015561;28;20221;-91
2021/01/23 10:45:47;;;;;;;2.77;2.53;;;6.00;85.90;;;;;;5023433;28;20618;-89
2021/01/23 10:48:13;;;;;;;3.30;2.83;;;6.00;83.70;;;;;;5025614;28;20208;-91
2021/01/23 10:50:39;;;;;;;4.00;2.70;;;5.60;85.20;;;;;;5036821;28;20189;-92
2021/01/23 10:53:05;;;;;;;3.50;2.60;;;5.70;84.40;;;;;;5021065;28;20197;-91
2021/01/23 10:55:30;;;;;;;2.80;2.50;;;5.80;83.40;;;;;;5001967;28;20198;-91
2021/01/23 10:57:56;;;;;;;3.33;2.93;;;5.90;86.90;;;;;;5033666;28;20220;-91
2021/01/23 11:00:22;;;;;;;4.47;2.93;;;5.90;85.90;;;;;;5019903;28;20189;-92
2021/01/23 11:02:48;;;;;;;3.30;3.00;;;5.90;85.60;;;;;;5028444;28;20894;-92
2021/01/23 11:05:13;;;;;;;3.17;2.87;;;6.00;84.20;;;;;;5019635;28;20205;-94
2021/01/23 11:07:39;;;;;;;3.30;2.60;;;6.00;84.70;;;;;;5016531;28;20252;-93
2021/01/23 11:10:05;;;;;;;4.87;2.90;;;5.90;85.40;;;;;;5037790;28;20204;-93
2021/01/23 11:12:31;;;;;;;3.20;2.80;;;6.20;83.80;;;;;;5024269;28;20255;-94
2021/01/23 11:14:57;;;;;;;4.57;2.80;;;6.20;84.80;;;;;;5031489;28;20229;-94
2021/01/23 11:17:38;;;;;;;3.80;2.60;;;6.30;83.20;;;;;;5024583;28;20276;-94
2021/01/23 11:20:06;;;;;;;4.23;2.80;;;6.30;84.40;;;;;;5023309;28;20185;-87
2021/01/23 11:22:31;;;;;;;3.90;2.60;;;6.30;83.60;;;;;;5029344;28;20224;-88
2021/01/23 11:24:57;;;;;;;2.90;2.60;;;6.30;83.60;;;;;;5032523;28;20204;-90
2021/01/23 11:27:23;;;;;;;3.73;2.67;;;6.60;82.20;;;;;;5015535;28;20648;-90
2021/01/23 11:29:48;;;;;;;19.17;14.43;;;6.50;82.50;;;;;;5011160;28;20190;-90
2021/01/23 11:32:14;;;;;;;2.57;2.37;;;6.40;83.90;;;;;;5021871;28;20193;-87
2021/01/23 11:34:40;;;;;;;2.87;2.57;;;6.80;77.70;;;;;;5010993;28;20275;-88
2021/01/23 11:37:05;;;;;;;2.83;2.53;;;6.70;79.40;;;;;;5022417;28;20185;-88
2021/01/23 11:39:31;;;;;;;5.67;2.70;;;6.90;77.80;;;;;;5022553;28;20180;-88
2021/01/23 11:41:57;;;;;;;2.90;2.40;;;7.00;78.00;;;;;;5030781;28;20253;-89
2021/01/23 11:44:22;;;;;;;3.03;2.23;;;7.00;78.90;;;;;;5016081;28;20658;-89
2021/01/23 11:46:48;;;;;;;4.67;3.10;;;7.00;79.10;;;;;;5024881;28;20238;-89
2021/01/23 11:49:14;;;;;;;3.07;2.20;;;7.10;77.20;;;;;;5036933;28;20276;-89
2021/01/23 11:51:40;;;;;;;5.77;2.40;;;7.00;76.50;;;;;;5039218;28;20228;-89
2021/01/23 11:54:05;;;;;;;6.50;2.60;;;7.20;75.90;;;;;;5039960;28;20268;-88
2021/01/23 11:56:31;;;;;;;4.33;2.33;;;7.10;76.40;;;;;;5003342;28;20189;-89
2021/01/23 11:58:56;;;;;;;3.13;2.50;;;7.20;77.50;;;;;;5005114;28;20200;-89
2021/01/23 12:01:22;;;;;;;3.50;2.60;;;7.00;78.80;;;;;;5021590;28;20212;-89
2021/01/23 12:03:48;;;;;;;7.37;3.10;;;6.90;80.50;;;;;;5016732;28;20307;-89
2021/01/23 12:06:13;;;;;;;2.50;2.30;;;7.00;78.10;;;;;;5019489;28;20185;-88
2021/01/23 12:08:39;;;;;;;3.40;2.27;;;6.90;79.90;;;;;;5023741;28;20188;-89
2021/01/23 12:11:05;;;;;;;4.77;2.60;;;6.90;77.60;;;;;;5023667;28;20258;-90
2021/01/23 12:13:31;;;;;;;3.80;2.70;;;6.60;79.00;;;;;;5036156;28;20251;-89
2021/01/23 12:15:57;;;;;;;2.80;2.03;;;6.70;76.50;;;;;;5016659;28;20185;-88
2021/01/23 12:18:22;;;;;;;2.27;1.93;;;6.70;76.00;;;;;;5017798;28;20196;-89
2021/01/23 12:20:48;;;;;;;5.90;2.40;;;6.60;76.30;;;;;;5000295;28;20244;-88
2021/01/23 12:23:15;;;;;;;4.10;2.10;;;6.60;76.30;;;;;;5017162;28;20221;-88
2021/01/23 12:25:41;;;;;;;3.77;2.23;;;6.40;76.20;;;;;;5004330;28;20173;-90
2021/01/23 12:28:07;;;;;;;4.87;2.93;;;6.50;76.30;;;;;;5035850;28;20310;-88
2021/01/23 12:30:32;;;;;;;2.67;1.90;;;6.50;79.20;;;;;;5036530;28;20256;-89
2021/01/23 12:32:58;;;;;;;2.37;2.17;;;6.60;75.70;;;;;;5037088;28;20189;-89
2021/01/23 12:35:24;;;;;;;4.73;2.40;;;6.60;77.30;;;;;;5037486;28;20287;-89
2021/01/23 12:37:55;;;;;;;3.23;2.13;;;6.60;76.30;;;;;;5020462;28;20205;-90
2021/01/23 12:40:21;;;;;;;3.13;2.53;;;6.70;76.10;;;;;;5036311;28;20181;-89
2021/01/23 12:42:47;;;;;;;4.40;2.20;;;6.80;73.80;;;;;;5038834;28;20217;-89
2021/01/23 12:45:13;;;;;;;2.50;1.93;;;7.00;75.70;;;;;;5028019;28;20213;-90
2021/01/23 12:47:38;;;;;;;2.17;1.97;;;7.00;75.20;;;;;;5016940;28;20189;-90
2021/01/23 12:50:04;;;;;;;3.27;2.77;;;7.20;73.90;;;;;;5037553;28;20242;-90
2021/01/23 12:52:30;;;;;;;2.63;2.43;;;7.30;72.50;;;;;;5036733;28;20710;-90
2021/01/23 12:54:56;;;;;;;3.87;2.23;;;7.60;71.20;;;;;;5038852;28;20212;-91
2021/01/23 12:57:21;;;;;;;3.10;1.83;;;8.00;70.20;;;;;;5005595;28;20752;-92
2021/01/23 12:59:47;;;;;;;5.23;2.03;;;8.00;69.40;;;;;;5036063;28;20205;-91
2021/01/23 13:02:13;;;;;;;4.60;2.40;;;7.90;71.70;;;;;;5035952;28;20706;-91